Time;durP1;ratioP1;P1;durP2;ratioP2;P2;SDS_P1;SDS_P2;PMS_P1;PMS_P2;Temp;Humidity;BMP_temperature;BMP_pressure;BME280_temperature;BME280_humidity;BME280_pressure;Samples;Min_cycle;Max_cycle;Signal;HPM_P1;HPM_P2
2022/08/19 00:00:35;;;;;;;1.47;0.83;;;21.10;98.20;;;;;;5008066;28;20472;-79
2022/08/19 00:03:02;;;;;;;1.43;0.90;;;21.10;98.20;;;;;;4994715;28;20480;-78
2022/08/19 00:05:30;;;;;;;1.50;0.90;;;21.00;98.20;;;;;;5009686;28;20464;-79
2022/08/19 00:07:57;;;;;;;1.50;0.90;;;21.00;98.20;;;;;;4986886;28;20555;-78
2022/08/19 00:10:24;;;;;;;1.50;0.90;;;21.00;98.20;;;;;;5014823;28;20559;-77
2022/08/19 00:12:51;;;;;;;1.47;0.90;;;21.00;98.20;;;;;;4991664;28;20476;-79
2022/08/19 00:15:22;;;;;;;1.50;0.97;;;20.90;98.20;;;;;;5007805;28;20883;-78
2022/08/19 00:17:49;;;;;;;1.50;0.90;;;20.90;98.20;;;;;;4988607;28;20503;-78
2022/08/19 00:20:20;;;;;;;1.40;0.90;;;20.90;98.20;;;;;;5012707;28;21054;-78
2022/08/19 00:22:48;;;;;;;1.50;0.90;;;20.90;98.20;;;;;;4974728;28;21002;-77
2022/08/19 00:25:16;;;;;;;1.47;0.90;;;20.90;98.20;;;;;;5014930;28;20490;-77
2022/08/19 00:27:43;;;;;;;1.47;0.90;;;20.90;98.20;;;;;;4994978;28;20497;-78
2022/08/19 00:30:12;;;;;;;1.47;0.90;;;20.80;98.20;;;;;;5007514;28;20715;-79
2022/08/19 00:32:41;;;;;;;1.40;0.90;;;20.80;98.20;;;;;;5007051;28;20862;-79
2022/08/19 00:35:10;;;;;;;1.50;0.90;;;20.80;98.20;;;;;;5008495;28;20468;-78
2022/08/19 00:37:38;;;;;;;1.50;0.90;;;20.80;98.20;;;;;;5008333;28;20483;-78
2022/08/19 00:40:09;;;;;;;1.47;0.90;;;20.70;98.20;;;;;;5008157;28;20899;-78
2022/08/19 00:42:36;;;;;;;1.50;0.90;;;20.70;98.20;;;;;;4991891;28;20477;-78
2022/08/19 00:45:09;;;;;;;1.50;0.90;;;20.70;98.20;;;;;;5008882;28;20472;-78
2022/08/19 00:47:36;;;;;;;1.50;1.00;;;20.70;98.20;;;;;;5004330;28;21039;-80
2022/08/19 00:50:09;;;;;;;1.47;0.90;;;20.70;98.20;;;;;;5014671;28;20990;-79
2022/08/19 00:52:44;;;;;;;1.43;0.90;;;20.70;98.20;;;;;;4982375;28;20493;-79
2022/08/19 00:55:16;;;;;;;1.50;1.00;;;20.60;98.20;;;;;;5016201;28;20468;-78
2022/08/19 00:57:48;;;;;;;1.50;0.90;;;20.60;98.20;;;;;;4997578;28;20567;-79
2022/08/19 01:00:18;;;;;;;1.50;0.90;;;20.60;98.20;;;;;;5010615;28;20899;-78
2022/08/19 01:02:46;;;;;;;1.43;0.90;;;20.60;98.20;;;;;;4974085;28;20485;-79
2022/08/19 01:05:20;;;;;;;1.47;0.90;;;20.60;98.20;;;;;;5013590;28;20456;-79
2022/08/19 01:07:48;;;;;;;1.43;0.90;;;20.50;98.20;;;;;;5002329;28;20487;-78
2022/08/19 01:10:18;;;;;;;1.50;0.90;;;20.50;98.20;;;;;;5007617;28;20535;-78
2022/08/19 01:12:47;;;;;;;1.47;0.90;;;20.50;98.20;;;;;;5002101;28;20923;-79
2022/08/19 01:15:19;;;;;;;1.50;0.90;;;20.50;98.20;;;;;;5011753;28;20965;-79
2022/08/19 01:17:47;;;;;;;1.50;0.90;;;20.50;98.20;;;;;;5006667;28;20488;-79
2022/08/19 01:20:22;;;;;;;1.47;0.90;;;20.40;98.20;;;;;;4983712;28;20466;-78
2022/08/19 01:22:52;;;;;;;1.50;0.90;;;20.40;98.20;;;;;;4984042;28;20531;-78
2022/08/19 01:25:27;;;;;;;1.47;0.90;;;20.40;98.20;;;;;;5014041;28;20472;-79
2022/08/19 01:27:55;;;;;;;1.47;0.90;;;20.40;98.20;;;;;;4996507;28;21044;-78
2022/08/19 01:30:30;;;;;;;1.43;0.90;;;20.40;98.20;;;;;;5012356;28;20491;-79
2022/08/19 01:32:58;;;;;;;1.50;0.90;;;20.40;98.20;;;;;;5000270;28;20471;-80
2022/08/19 01:35:28;;;;;;;1.47;0.90;;;20.30;98.20;;;;;;5013326;28;20467;-80
2022/08/19 01:37:59;;;;;;;1.47;0.90;;;20.30;98.20;;;;;;4995334;28;20501;-78
2022/08/19 01:40:30;;;;;;;1.40;0.90;;;20.20;98.20;;;;;;5017581;28;20595;-80
2022/08/19 01:42:58;;;;;;;1.47;0.90;;;20.20;98.20;;;;;;5002957;28;20488;-80
2022/08/19 01:45:28;;;;;;;1.43;0.90;;;20.20;98.20;;;;;;5008992;28;20461;-79
2022/08/19 01:47:59;;;;;;;1.50;0.90;;;20.20;98.20;;;;;;4987228;28;20532;-78
2022/08/19 01:50:27;;;;;;;1.47;0.90;;;20.20;98.20;;;;;;5009194;28;20467;-78
2022/08/19 01:52:56;;;;;;;1.50;0.90;;;20.20;98.20;;;;;;4975494;28;20546;-78
2022/08/19 01:55:24;;;;;;;1.50;0.90;;;20.20;98.20;;;;;;5011812;28;21016;-78
2022/08/19 01:57:55;;;;;;;1.40;0.90;;;20.10;98.20;;;;;;5000473;28;20488;-78
2022/08/19 02:00:25;;;;;;;1.47;0.90;;;20.10;98.20;;;;;;5012824;28;20484;-78
2022/08/19 02:02:56;;;;;;;1.40;0.90;;;20.10;98.20;;;;;;4999566;28;20477;-78
2022/08/19 02:05:24;;;;;;;1.50;0.90;;;20.10;98.20;;;;;;5011274;28;20564;-78
2022/08/19 02:07:51;;;;;;;1.50;0.90;;;20.00;98.20;;;;;;5006005;28;20546;-78
2022/08/19 02:10:22;;;;;;;1.50;0.90;;;20.00;98.20;;;;;;5009554;28;20464;-78
2022/08/19 02:12:50;;;;;;;1.50;1.00;;;20.00;98.20;;;;;;5006602;28;20476;-78
2022/08/19 02:15:18;;;;;;;1.50;0.90;;;20.00;98.20;;;;;;5015352;28;20467;-78
2022/08/19 02:17:46;;;;;;;1.50;0.90;;;20.00;98.20;;;;;;5002679;28;20580;-79
2022/08/19 02:20:14;;;;;;;1.50;0.90;;;19.90;98.20;;;;;;5014552;28;20554;-79
2022/08/19 02:22:42;;;;;;;1.50;0.90;;;19.90;98.20;;;;;;5004769;28;20488;-78
2022/08/19 02:25:10;;;;;;;1.47;0.90;;;19.90;98.20;;;;;;5010200;28;20468;-78
2022/08/19 02:27:39;;;;;;;1.43;0.90;;;19.90;98.20;;;;;;4986982;28;20481;-77
2022/08/19 02:30:08;;;;;;;1.50;0.90;;;19.90;98.20;;;;;;5011757;28;20961;-79
2022/08/19 02:32:36;;;;;;;1.50;0.90;;;19.90;98.20;;;;;;4987897;28;20489;-78
2022/08/19 02:35:03;;;;;;;1.50;0.90;;;19.90;98.20;;;;;;5008542;28;20476;-79
2022/08/19 02:40:17;;;;;;;1.50;0.93;;;19.80;98.20;;;;;;5007298;28;20439;-77
2022/08/19 02:42:46;;;;;;;1.50;0.90;;;19.80;98.20;;;;;;4989219;28;20476;-78
2022/08/19 02:45:14;;;;;;;1.50;0.90;;;19.80;98.20;;;;;;5013301;28;20464;-79
2022/08/19 02:47:41;;;;;;;1.43;0.90;;;19.80;98.20;;;;;;5003261;28;21124;-79
2022/08/19 02:50:09;;;;;;;1.50;0.90;;;19.80;98.20;;;;;;5013580;28;20514;-78
2022/08/19 02:52:37;;;;;;;1.50;0.90;;;19.70;98.20;;;;;;5004524;28;20494;-78
2022/08/19 02:55:04;;;;;;;1.50;0.90;;;19.70;98.20;;;;;;5014704;28;20460;-79
2022/08/19 02:57:32;;;;;;;1.50;0.90;;;19.70;98.20;;;;;;5003193;28;20483;-78
2022/08/19 03:00:02;;;;;;;1.50;0.90;;;19.70;98.20;;;;;;5013105;28;20518;-78
2022/08/19 03:02:30;;;;;;;1.50;0.90;;;19.70;98.20;;;;;;4999893;28;20552;-78
2022/08/19 03:04:57;;;;;;;1.50;0.90;;;19.60;98.20;;;;;;5014360;28;20467;-79
2022/08/19 03:07:24;;;;;;;1.47;0.90;;;19.60;98.20;;;;;;5010885;28;20489;-79
2022/08/19 03:09:51;;;;;;;1.50;0.90;;;19.60;98.20;;;;;;5018528;28;20466;-79
2022/08/19 03:12:18;;;;;;;1.50;1.00;;;19.60;98.20;;;;;;5003196;28;20469;-79
2022/08/19 03:14:46;;;;;;;1.50;1.00;;;19.60;98.20;;;;;;5012869;28;20463;-79
2022/08/19 03:17:15;;;;;;;1.50;0.90;;;19.50;98.20;;;;;;5010150;28;20555;-79
2022/08/19 03:19:42;;;;;;;1.50;0.90;;;19.50;98.20;;;;;;5016669;28;20514;-79
2022/08/19 03:22:10;;;;;;;1.50;0.90;;;19.50;98.20;;;;;;4990457;28;20480;-78
2022/08/19 03:24:37;;;;;;;1.50;0.90;;;19.50;98.20;;;;;;5009618;28;20475;-79
2022/08/19 03:27:05;;;;;;;1.50;0.93;;;19.50;98.20;;;;;;5005192;28;20495;-79
2022/08/19 03:29:33;;;;;;;1.50;0.90;;;19.50;98.20;;;;;;5007074;28;20479;-79
2022/08/19 03:32:01;;;;;;;1.50;0.90;;;19.50;98.20;;;;;;5000345;28;20495;-80
2022/08/19 03:34:31;;;;;;;1.50;0.90;;;19.50;98.20;;;;;;5004150;28;20468;-79
2022/08/19 03:37:04;;;;;;;1.50;0.90;;;19.50;98.20;;;;;;5010600;28;20510;-79
2022/08/19 03:39:31;;;;;;;1.50;0.90;;;19.40;98.20;;;;;;5003952;28;20476;-77
2022/08/19 03:42:02;;;;;;;1.50;1.00;;;19.40;98.20;;;;;;5005658;28;20507;-79
2022/08/19 03:44:32;;;;;;;1.50;0.93;;;19.40;98.20;;;;;;5011595;28;20650;-79
2022/08/19 03:47:00;;;;;;;1.50;1.00;;;19.40;98.20;;;;;;5005489;28;20547;-79
2022/08/19 03:49:32;;;;;;;1.50;1.00;;;19.40;98.20;;;;;;5011143;28;20468;-77
2022/08/19 03:52:01;;;;;;;1.50;0.90;;;19.40;98.20;;;;;;5005769;28;21101;-78
2022/08/19 03:54:29;;;;;;;1.50;0.90;;;19.40;98.20;;;;;;5013658;28;20495;-78
2022/08/19 03:56:57;;;;;;;1.43;0.90;;;19.40;98.20;;;;;;5000536;28;20489;-79
2022/08/19 03:59:27;;;;;;;1.50;0.90;;;19.40;98.20;;;;;;5002999;28;20534;-78
2022/08/19 04:01:55;;;;;;;1.40;0.90;;;19.40;98.20;;;;;;4999116;28;20481;-79
2022/08/19 04:04:23;;;;;;;1.50;0.90;;;19.40;98.20;;;;;;5004134;28;20494;-78
2022/08/19 04:06:52;;;;;;;1.50;1.10;;;19.30;98.20;;;;;;5002558;28;20871;-78
2022/08/19 04:09:21;;;;;;;1.40;0.90;;;19.30;98.20;;;;;;5010613;28;20894;-78
2022/08/19 04:11:53;;;;;;;1.47;0.90;;;19.30;98.20;;;;;;5002572;28;20484;-79
2022/08/19 04:14:24;;;;;;;1.50;0.90;;;19.30;98.20;;;;;;5007214;28;20896;-79
2022/08/19 04:16:52;;;;;;;1.50;0.90;;;19.40;98.20;;;;;;4991433;28;20489;-80
2022/08/19 04:19:20;;;;;;;1.47;0.90;;;19.40;98.20;;;;;;5006675;28;20535;-79
2022/08/19 04:21:57;;;;;;;1.50;0.90;;;19.40;98.20;;;;;;5001367;28;20993;-78
2022/08/19 04:24:24;;;;;;;1.43;0.90;;;19.40;98.20;;;;;;5001095;28;20522;-79
2022/08/19 04:26:59;;;;;;;1.50;0.90;;;19.40;98.20;;;;;;5003386;28;20495;-79
2022/08/19 04:29:27;;;;;;;1.50;0.90;;;19.40;98.20;;;;;;5006073;28;20464;-80
2022/08/19 04:31:55;;;;;;;1.50;0.90;;;19.40;98.20;;;;;;5005460;28;20488;-80
2022/08/19 04:34:25;;;;;;;2.27;1.53;;;19.30;98.20;;;;;;5016322;28;20467;-79
2022/08/19 04:36:58;;;;;;;1.47;0.90;;;19.30;98.20;;;;;;5004772;28;20482;-79
2022/08/19 04:42:38;;;;;;;1.50;0.90;;;19.30;98.20;;;;;;5016564;28;20464;-80
2022/08/19 04:45:09;;;;;;;1.50;1.00;;;19.30;98.20;;;;;;5010341;28;20458;-79
2022/08/19 04:47:44;;;;;;;1.50;0.90;;;19.30;98.20;;;;;;5003723;28;20492;-79
2022/08/19 04:50:11;;;;;;;1.50;0.90;;;19.30;98.20;;;;;;5012453;28;20479;-80
2022/08/19 04:52:44;;;;;;;1.47;0.90;;;19.30;98.20;;;;;;4981027;28;20541;-79
2022/08/19 04:55:13;;;;;;;1.47;0.90;;;19.30;98.20;;;;;;5012257;28;21113;-79
2022/08/19 04:57:41;;;;;;;1.47;0.90;;;19.30;98.20;;;;;;4991870;28;21092;-78
2022/08/19 05:00:13;;;;;;;2.17;1.37;;;19.30;98.20;;;;;;5011531;28;20537;-78
2022/08/19 05:02:40;;;;;;;1.50;0.90;;;19.30;98.20;;;;;;4986903;28;20505;-79
2022/08/19 05:05:22;;;;;;;1.47;0.90;;;19.30;98.20;;;;;;5009048;28;20479;-79
2022/08/19 05:07:51;;;;;;;1.47;0.90;;;19.30;98.20;;;;;;4997233;28;20500;-81
2022/08/19 05:10:20;;;;;;;1.50;0.90;;;19.40;98.20;;;;;;5009702;28;20507;-79
2022/08/19 05:12:47;;;;;;;1.50;1.00;;;19.40;98.20;;;;;;5008588;28;20476;-78
2022/08/19 05:15:27;;;;;;;1.50;0.90;;;19.40;98.20;;;;;;5020106;28;20472;-84
2022/08/19 05:26:49;;;;;;;1.47;0.90;;;19.60;98.20;;;;;;4891354;29;20505;-82
2022/08/19 05:29:22;;;;;;;1.47;0.90;;;19.60;98.20;;;;;;4958577;28;20570;-80
2022/08/19 05:31:50;;;;;;;1.50;0.90;;;19.70;98.20;;;;;;4997418;28;20468;-82
2022/08/19 05:34:21;;;;;;;1.50;0.90;;;19.70;98.20;;;;;;5010316;28;20456;-80
2022/08/19 05:36:56;;;;;;;1.50;0.90;;;19.70;98.20;;;;;;4996862;28;20477;-79
2022/08/19 05:39:28;;;;;;;1.50;1.00;;;19.80;98.20;;;;;;5010028;28;20464;-79
2022/08/19 05:41:58;;;;;;;1.50;0.90;;;19.90;98.20;;;;;;5003134;28;20483;-79
2022/08/19 05:44:36;;;;;;;1.50;0.97;;;20.00;98.20;;;;;;5012119;28;20981;-80
2022/08/19 05:47:09;;;;;;;1.50;1.00;;;20.00;98.20;;;;;;5000595;28;20486;-80
2022/08/19 05:49:37;;;;;;;1.50;0.97;;;20.00;98.20;;;;;;5011776;28;20460;-80
2022/08/19 05:52:07;;;;;;;1.50;0.90;;;20.10;98.20;;;;;;4985945;28;20501;-80
2022/08/19 05:54:39;;;;;;;1.50;0.90;;;20.20;98.20;;;;;;5007040;28;20492;-78
2022/08/19 05:57:07;;;;;;;1.50;0.90;;;20.30;98.20;;;;;;4998470;28;20560;-78
2022/08/19 05:59:36;;;;;;;1.50;0.90;;;20.40;98.20;;;;;;5006961;28;20472;-78
2022/08/19 06:02:05;;;;;;;1.50;0.90;;;20.50;98.20;;;;;;4993638;28;20487;-79
2022/08/19 06:04:42;;;;;;;1.50;0.90;;;20.60;98.20;;;;;;5008181;28;20487;-80
2022/08/19 06:07:12;;;;;;;1.90;1.23;;;20.70;98.20;;;;;;5005197;28;20492;-79
2022/08/19 06:09:43;;;;;;;1.50;0.90;;;20.80;98.20;;;;;;5012472;28;20836;-80
2022/08/19 06:12:11;;;;;;;1.50;0.90;;;20.90;98.20;;;;;;5000190;28;20561;-78
2022/08/19 06:14:51;;;;;;;1.50;0.90;;;21.10;98.20;;;;;;5008555;28;20543;-81
2022/08/19 06:17:20;;;;;;;1.50;0.90;;;21.10;98.20;;;;;;5001362;28;20546;-80
2022/08/19 06:19:49;;;;;;;1.50;0.90;;;21.10;98.20;;;;;;5011266;28;20464;-78
2022/08/19 06:22:17;;;;;;;1.50;0.90;;;21.10;98.20;;;;;;4997636;28;20556;-78
2022/08/19 06:27:39;;;;;;;1.50;0.90;;;21.10;98.20;;;;;;4968390;28;20913;-78
2022/08/19 06:30:08;;;;;;;1.50;0.90;;;21.10;98.20;;;;;;5009733;28;20463;-77
2022/08/19 06:32:36;;;;;;;1.50;0.90;;;21.10;98.20;;;;;;4991622;28;20527;-79
2022/08/19 06:35:06;;;;;;;1.50;1.00;;;21.10;98.20;;;;;;5007834;28;20470;-78
2022/08/19 06:37:33;;;;;;;1.50;0.90;;;21.20;98.20;;;;;;5000269;28;20491;-79
2022/08/19 06:40:12;;;;;;;1.50;0.90;;;21.20;98.20;;;;;;5010934;28;20886;-79
2022/08/19 06:42:58;;;;;;;1.50;0.90;;;21.30;98.20;;;;;;4989530;28;20516;-79
2022/08/19 06:45:39;;;;;;;1.50;0.90;;;21.30;98.20;;;;;;5009336;28;20460;-80
2022/08/19 06:48:07;;;;;;;1.50;0.90;;;21.40;98.20;;;;;;4992845;28;20489;-79
2022/08/19 06:50:34;;;;;;;1.50;0.90;;;21.40;98.20;;;;;;5006360;28;20556;-79
2022/08/19 06:53:03;;;;;;;1.50;0.90;;;21.40;98.20;;;;;;4992310;28;20563;-79
2022/08/19 06:55:32;;;;;;;1.50;0.90;;;21.40;98.20;;;;;;5008332;28;20881;-79
2022/08/19 06:58:03;;;;;;;1.43;0.90;;;21.30;98.20;;;;;;4998955;28;20476;-80
2022/08/19 07:00:30;;;;;;;1.50;0.90;;;21.30;98.20;;;;;;5008588;28;20571;-80
2022/08/19 07:03:02;;;;;;;1.50;0.90;;;21.20;98.20;;;;;;4990200;28;20495;-80
2022/08/19 07:05:30;;;;;;;1.50;0.90;;;21.20;98.20;;;;;;5014802;28;20492;-79
2022/08/19 07:07:57;;;;;;;1.47;0.90;;;21.30;98.20;;;;;;4997358;28;20522;-79
2022/08/19 07:10:25;;;;;;;1.50;0.90;;;21.30;98.20;;;;;;5009153;28;20487;-79
2022/08/19 07:12:53;;;;;;;1.50;0.90;;;21.30;98.20;;;;;;4995224;28;20484;-79
2022/08/19 07:15:21;;;;;;;1.50;0.90;;;21.30;98.20;;;;;;5009216;28;20951;-80
2022/08/19 07:17:48;;;;;;;1.47;0.90;;;21.30;98.20;;;;;;4996374;28;20496;-80
2022/08/19 07:20:17;;;;;;;1.50;0.90;;;21.30;98.20;;;;;;5008128;28;20474;-80
2022/08/19 07:23:08;;;;;;;1.50;1.10;;;21.40;98.20;;;;;;5001150;28;20486;-80
2022/08/19 07:25:38;;;;;;;1.50;0.90;;;21.30;98.20;;;;;;5010997;28;20474;-78
2022/08/19 07:28:09;;;;;;;2.50;2.10;;;21.30;98.20;;;;;;4991880;28;20480;-78
2022/08/19 07:30:40;;;;;;;1.47;0.90;;;21.30;98.20;;;;;;5012457;28;20480;-79
2022/08/19 07:33:08;;;;;;;1.50;0.90;;;21.30;98.20;;;;;;4990165;28;20477;-79
2022/08/19 07:35:35;;;;;;;1.70;1.23;;;21.40;98.20;;;;;;5010742;28;20466;-79
2022/08/19 07:38:03;;;;;;;1.47;0.87;;;21.40;98.20;;;;;;4991463;28;20484;-79
2022/08/19 07:40:32;;;;;;;1.47;0.90;;;21.50;98.20;;;;;;5013732;28;20737;-79
2022/08/19 07:42:59;;;;;;;1.50;0.90;;;21.60;98.20;;;;;;5003205;28;20476;-79
2022/08/19 07:45:31;;;;;;;1.50;0.90;;;21.70;98.20;;;;;;5011031;28;20479;-79
2022/08/19 07:47:58;;;;;;;1.50;0.90;;;21.80;98.20;;;;;;5000244;28;20865;-79
2022/08/19 07:50:29;;;;;;;1.60;1.20;;;21.90;98.20;;;;;;5010812;28;20499;-79
2022/08/19 07:52:56;;;;;;;1.50;0.90;;;21.90;98.20;;;;;;5001098;28;20772;-79
2022/08/19 07:55:26;;;;;;;1.50;0.90;;;22.00;98.20;;;;;;5016608;28;20571;-79
2022/08/19 07:57:54;;;;;;;1.50;0.90;;;22.10;98.20;;;;;;5002719;28;20921;-79
2022/08/19 08:00:22;;;;;;;1.50;0.90;;;22.20;98.20;;;;;;5009914;28;20464;-79
2022/08/19 08:02:56;;;;;;;1.50;0.90;;;22.30;98.20;;;;;;4980958;28;20520;-79
2022/08/19 08:11:05;;;;;;;1.50;0.90;;;22.60;98.20;;;;;;4920066;29;20483;-81
2022/08/19 08:13:32;;;;;;;1.50;0.90;;;22.80;98.20;;;;;;4992464;28;20472;-80
2022/08/19 08:16:06;;;;;;;2.13;1.17;;;22.90;98.20;;;;;;5004086;28;20625;-80
2022/08/19 08:18:41;;;;;;;1.50;0.90;;;23.10;98.20;;;;;;5011428;28;20483;-79
2022/08/19 08:21:13;;;;;;;1.50;0.90;;;23.40;98.20;;;;;;5000065;28;22226;-79
2022/08/19 08:23:45;;;;;;;1.50;0.90;;;23.70;98.20;;;;;;4992828;28;21064;-80
2022/08/19 08:26:20;;;;;;;1.50;0.90;;;24.00;98.20;;;;;;5002790;28;20488;-79
2022/08/19 08:28:58;;;;;;;1.60;1.27;;;24.30;98.20;;;;;;5001706;28;20962;-79
2022/08/19 08:31:26;;;;;;;1.50;0.87;;;24.60;98.20;;;;;;4997233;28;20906;-79
2022/08/19 08:33:55;;;;;;;1.80;1.40;;;25.00;97.20;;;;;;5001529;28;20491;-80
2022/08/19 08:36:25;;;;;;;1.50;0.90;;;25.30;96.30;;;;;;4997749;28;20498;-78
2022/08/19 08:38:52;;;;;;;1.50;0.83;;;25.50;95.40;;;;;;5009743;28;20476;-78
2022/08/19 08:41:34;;;;;;;1.50;0.90;;;25.70;93.90;;;;;;5002354;28;20503;-78
2022/08/19 08:44:03;;;;;;;1.50;0.90;;;25.80;93.80;;;;;;5010323;28;20487;-79
2022/08/19 08:46:38;;;;;;;1.50;0.90;;;25.80;93.00;;;;;;5000985;28;20468;-78
2022/08/19 08:49:16;;;;;;;1.50;0.90;;;25.70;92.40;;;;;;5011166;28;20483;-78
2022/08/19 08:51:49;;;;;;;1.50;1.00;;;25.60;91.50;;;;;;4998747;28;20480;-79
2022/08/19 08:54:21;;;;;;;1.57;1.20;;;25.50;91.60;;;;;;5007842;28;20463;-78
2022/08/19 08:56:52;;;;;;;1.50;0.90;;;25.50;91.50;;;;;;5000770;28;20500;-78
2022/08/19 08:59:24;;;;;;;1.50;0.90;;;25.40;91.50;;;;;;5004334;28;20460;-78
2022/08/19 09:01:53;;;;;;;1.47;0.83;;;25.40;92.20;;;;;;4991129;28;20498;-79
2022/08/19 09:04:22;;;;;;;1.50;0.83;;;25.40;91.80;;;;;;4998635;28;20596;-79
2022/08/19 09:06:55;;;;;;;1.50;0.80;;;25.40;92.40;;;;;;4999841;28;20484;-78
2022/08/19 09:09:32;;;;;;;1.50;0.90;;;25.40;92.30;;;;;;5006968;28;20460;-78
2022/08/19 09:12:09;;;;;;;1.47;0.90;;;25.40;91.80;;;;;;4999757;28;20521;-77
2022/08/19 09:14:45;;;;;;;1.50;0.80;;;25.50;91.70;;;;;;5006676;28;20459;-76
2022/08/19 09:17:15;;;;;;;1.50;0.90;;;25.60;91.80;;;;;;4984357;28;20484;-75
2022/08/19 09:19:52;;;;;;;1.47;0.80;;;25.60;91.30;;;;;;5008680;28;20464;-75
2022/08/19 09:22:21;;;;;;;3.07;2.80;;;25.60;90.40;;;;;;5003121;28;20586;-75
2022/08/19 09:24:50;;;;;;;3.13;2.00;;;25.60;89.90;;;;;;5013134;28;20491;-75
2022/08/19 09:27:17;;;;;;;1.47;0.90;;;25.60;89.60;;;;;;5002642;28;20480;-76
2022/08/19 09:29:45;;;;;;;1.43;0.90;;;25.60;89.50;;;;;;5011157;28;20884;-76
2022/08/19 09:32:12;;;;;;;1.50;0.87;;;25.70;89.20;;;;;;5001712;28;20574;-76
2022/08/19 09:34:39;;;;;;;1.50;0.80;;;25.80;90.10;;;;;;5012145;28;20463;-74
2022/08/19 09:37:09;;;;;;;1.50;1.20;;;26.00;88.40;;;;;;4990033;28;20480;-76
2022/08/19 09:39:36;;;;;;;1.50;0.80;;;26.20;88.70;;;;;;5012509;28;21031;-76
2022/08/19 09:42:04;;;;;;;1.50;0.90;;;26.50;88.20;;;;;;4992508;28;20484;-74
2022/08/19 09:44:43;;;;;;;1.93;1.53;;;26.70;87.40;;;;;;5014747;28;20491;-76
2022/08/19 09:47:12;;;;;;;1.50;0.90;;;26.90;86.20;;;;;;4988765;28;21036;-77
2022/08/19 09:49:41;;;;;;;1.50;0.90;;;27.10;85.50;;;;;;5009344;28;20452;-77
2022/08/19 09:52:12;;;;;;;1.50;0.90;;;27.40;85.30;;;;;;5000751;28;20471;-74
2022/08/19 09:54:40;;;;;;;1.50;0.80;;;27.70;83.50;;;;;;5012462;28;20536;-77
2022/08/19 09:57:09;;;;;;;1.50;0.90;;;28.00;81.80;;;;;;4998303;28;20507;-78
2022/08/19 09:59:38;;;;;;;1.50;1.00;;;28.30;81.00;;;;;;5010506;28;20467;-76
2022/08/19 10:02:09;;;;;;;1.50;0.80;;;28.60;80.80;;;;;;5002768;28;20543;-78
2022/08/19 10:07:28;;;;;;;1.50;0.80;;;29.10;79.20;;;;;;4966768;28;20500;-78
2022/08/19 10:10:01;;;;;;;1.50;1.07;;;29.20;78.70;;;;;;5015739;28;20474;-77
2022/08/19 10:12:33;;;;;;;1.47;0.80;;;29.40;76.90;;;;;;4998898;28;20726;-76
2022/08/19 10:15:01;;;;;;;1.50;0.80;;;29.50;76.30;;;;;;5011229;28;20456;-77
2022/08/19 10:17:35;;;;;;;1.47;0.80;;;29.60;74.50;;;;;;5000526;28;20523;-76
2022/08/19 10:20:04;;;;;;;1.47;0.80;;;29.60;76.20;;;;;;5011533;28;20521;-76
2022/08/19 10:23:08;;;;;;;1.47;0.80;;;29.60;75.90;;;;;;4999071;28;20476;-76
2022/08/19 10:25:49;;;;;;;1.70;1.07;;;29.50;76.10;;;;;;4984901;28;20478;-76
2022/08/19 10:28:16;;;;;;;1.47;0.90;;;29.40;77.20;;;;;;4997529;28;20479;-76
2022/08/19 10:30:44;;;;;;;2.17;1.87;;;29.40;77.20;;;;;;5008116;28;20514;-76
2022/08/19 10:33:11;;;;;;;1.43;0.80;;;29.50;77.30;;;;;;5000815;28;20475;-76
2022/08/19 10:35:39;;;;;;;1.47;0.90;;;29.50;76.90;;;;;;5013591;28;20460;-77
2022/08/19 10:38:08;;;;;;;1.60;1.00;;;29.50;76.60;;;;;;4998068;28;20514;-75
2022/08/19 10:40:36;;;;;;;1.50;0.80;;;29.70;76.20;;;;;;5013682;28;20459;-75
2022/08/19 10:43:03;;;;;;;1.47;0.80;;;29.70;75.60;;;;;;4991645;28;20583;-76
2022/08/19 10:45:30;;;;;;;1.40;0.80;;;29.90;76.10;;;;;;5008190;28;20487;-76
2022/08/19 10:47:58;;;;;;;1.43;0.80;;;30.00;76.00;;;;;;4989808;28;20482;-76
2022/08/19 10:53:12;;;;;;;1.47;0.80;;;30.20;75.70;;;;;;4989095;28;20553;-76
2022/08/19 10:58:26;;;;;;;1.50;0.80;;;30.40;75.40;;;;;;4986879;28;20843;-77
2022/08/19 11:00:54;;;;;;;1.50;0.90;;;30.70;73.50;;;;;;4999619;28;20467;-76
2022/08/19 11:03:22;;;;;;;1.50;0.80;;;30.80;73.70;;;;;;4988082;28;20467;-76
2022/08/19 11:05:59;;;;;;;1.43;0.80;;;30.80;73.20;;;;;;5001475;28;20502;-76
2022/08/19 11:08:30;;;;;;;2.97;1.57;;;30.80;73.50;;;;;;5009600;28;20514;-75
2022/08/19 11:11:02;;;;;;;1.43;0.80;;;30.80;72.40;;;;;;5003024;28;20577;-75
2022/08/19 11:13:30;;;;;;;1.60;1.30;;;30.50;71.50;;;;;;4991677;28;20963;-76
2022/08/19 11:15:59;;;;;;;1.43;0.80;;;30.30;73.30;;;;;;5002605;28;20537;-76
2022/08/19 11:18:27;;;;;;;1.47;0.80;;;30.30;73.90;;;;;;5005810;28;20480;-76
2022/08/19 11:20:57;;;;;;;1.43;0.80;;;30.20;74.10;;;;;;4998881;28;20482;-76
2022/08/19 11:23:24;;;;;;;1.47;0.80;;;30.10;73.90;;;;;;4987037;28;20475;-76
2022/08/19 11:25:56;;;;;;;1.43;0.80;;;30.20;74.70;;;;;;4996884;28;20491;-76
2022/08/19 11:28:24;;;;;;;1.47;0.80;;;30.30;72.90;;;;;;5012262;28;20494;-78
2022/08/19 11:30:52;;;;;;;1.47;0.80;;;30.50;72.00;;;;;;4993824;28;20475;-78
2022/08/19 11:33:20;;;;;;;1.43;0.80;;;30.70;72.50;;;;;;4990467;28;20467;-77
2022/08/19 11:35:49;;;;;;;1.50;0.80;;;30.90;71.70;;;;;;5003611;28;20485;-78
2022/08/19 11:38:16;;;;;;;1.47;0.80;;;31.00;70.90;;;;;;5005965;28;20488;-76
2022/08/19 11:40:43;;;;;;;1.50;0.80;;;31.20;70.70;;;;;;5002438;28;20473;-77
2022/08/19 11:43:13;;;;;;;1.50;0.80;;;31.30;70.30;;;;;;5000022;28;20508;-77
2022/08/19 11:45:43;;;;;;;1.47;0.80;;;31.30;69.90;;;;;;5013131;28;20527;-76
2022/08/19 11:48:10;;;;;;;1.43;0.80;;;31.50;70.10;;;;;;4989657;28;20907;-76
2022/08/19 11:50:41;;;;;;;1.50;0.80;;;31.60;70.10;;;;;;5006211;28;20552;-76
2022/08/19 11:53:09;;;;;;;1.47;0.90;;;31.70;68.40;;;;;;4977852;28;20492;-77
2022/08/19 11:55:40;;;;;;;1.40;0.80;;;31.90;69.00;;;;;;5011604;28;20462;-76
2022/08/19 11:58:07;;;;;;;1.40;0.80;;;32.00;69.30;;;;;;4999213;28;20495;-76
2022/08/19 12:00:36;;;;;;;1.47;0.80;;;32.10;67.90;;;;;;5013497;28;20468;-76
2022/08/19 12:03:46;;;;;;;;;;;;;;;;;;;;;
2022/08/19 12:06:58;;;;;;;1.43;0.80;;;32.60;66.40;;;;;;5005657;28;20596;-77
2022/08/19 12:09:25;;;;;;;1.60;1.07;;;32.90;66.30;;;;;;4994120;28;20546;-76
2022/08/19 12:11:53;;;;;;;1.47;0.80;;;33.00;66.50;;;;;;4987076;28;20229;-76
2022/08/19 12:14:20;;;;;;;1.43;0.80;;;32.80;66.40;;;;;;4997191;28;20209;-76
2022/08/19 12:16:49;;;;;;;1.47;0.80;;;32.70;66.40;;;;;;4993765;28;20351;-75
2022/08/19 12:19:17;;;;;;;1.40;0.80;;;32.60;66.10;;;;;;5004312;28;20962;-75
2022/08/19 12:21:44;;;;;;;1.43;0.80;;;32.40;66.10;;;;;;4985271;28;20488;-75
2022/08/19 12:24:12;;;;;;;1.43;0.80;;;32.30;66.70;;;;;;4992552;28;20918;-76
2022/08/19 12:26:51;;;;;;;1.47;0.80;;;31.90;67.30;;;;;;4997660;28;20825;-76
2022/08/19 12:29:18;;;;;;;1.40;0.80;;;31.50;66.70;;;;;;4997274;28;20488;-76
2022/08/19 12:31:46;;;;;;;1.43;0.80;;;31.10;68.00;;;;;;4997199;28;20487;-76
2022/08/19 12:34:14;;;;;;;1.50;0.90;;;31.00;69.40;;;;;;5005539;28;21248;-77
2022/08/19 12:36:42;;;;;;;1.47;0.80;;;31.10;67.40;;;;;;4995415;28;20589;-75
2022/08/19 12:39:09;;;;;;;1.50;0.80;;;31.40;68.30;;;;;;4998985;28;20542;-75
2022/08/19 12:41:37;;;;;;;1.50;1.10;;;31.80;67.70;;;;;;4985106;28;21153;-74
2022/08/19 12:44:05;;;;;;;1.47;0.80;;;32.10;67.30;;;;;;5000875;28;20468;-76
2022/08/19 12:46:32;;;;;;;1.43;0.80;;;32.40;66.20;;;;;;4996697;28;20501;-74
2022/08/19 12:48:59;;;;;;;1.43;0.80;;;32.70;64.90;;;;;;5001725;28;21022;-76
2022/08/19 12:51:31;;;;;;;1.43;0.80;;;32.80;66.50;;;;;;4987406;28;20476;-76
2022/08/19 12:54:01;;;;;;;1.50;0.80;;;33.00;64.60;;;;;;4989278;28;20522;-76
2022/08/19 12:56:33;;;;;;;1.43;0.80;;;33.00;63.80;;;;;;4991232;28;20263;-78
2022/08/19 12:59:02;;;;;;;1.43;0.80;;;33.10;62.90;;;;;;4983436;28;20494;-75
2022/08/19 13:01:32;;;;;;;3.40;1.63;;;33.20;63.30;;;;;;4997756;28;20536;-76
2022/08/19 13:04:00;;;;;;;3.53;2.10;;;33.20;63.10;;;;;;5005864;28;20562;-76
2022/08/19 13:06:29;;;;;;;1.50;1.03;;;33.20;62.20;;;;;;5001209;28;20414;-75
2022/08/19 13:08:57;;;;;;;1.47;0.87;;;33.20;63.00;;;;;;5003130;28;20493;-76
2022/08/19 13:11:32;;;;;;;1.50;0.80;;;33.40;63.40;;;;;;4988330;28;20236;-76
2022/08/19 13:13:59;;;;;;;1.43;0.80;;;33.50;63.20;;;;;;4996546;28;20296;-75
2022/08/19 13:16:50;;;;;;;1.47;0.80;;;33.70;61.70;;;;;;5005741;28;20622;-76
2022/08/19 13:19:52;;;;;;;1.43;0.80;;;33.70;60.80;;;;;;5015705;28;20248;-76
2022/08/19 13:39:22;;;;;;;1.50;0.80;;;33.40;60.30;;;;;;4993729;28;20240;-75
2022/08/19 13:42:27;;;;;;;1.50;0.80;;;33.40;59.70;;;;;;4963136;28;20283;-76
2022/08/19 13:45:11;;;;;;;1.43;0.80;;;33.60;60.60;;;;;;5007050;28;20227;-76
2022/08/19 13:48:18;;;;;;;1.50;0.93;;;33.70;61.70;;;;;;4978448;28;20233;-76
2022/08/19 13:54:26;;;;;;;1.47;0.80;;;33.60;60.80;;;;;;4909108;28;20370;-75
2022/08/19 14:14:29;;;;;;;1.43;0.80;;;32.40;61.20;;;;;;4774338;29;20515;-75